sensor_id;sensor_type;location;lat;lon;timestamp;temperature;humidity
11221;DHT22;8517;53.546;10.104;2024-03-29T00:00:58;10.20;99.90
11221;DHT22;8517;53.546;10.104;2024-03-29T00:03:24;10.20;99.90
11221;DHT22;8517;53.546;10.104;2024-03-29T00:05:50;10.20;99.90
11221;DHT22;8517;53.546;10.104;2024-03-29T00:08:16;10.10;99.90
11221;DHT22;8517;53.546;10.104;2024-03-29T00:10:41;10.10;99.90
11221;DHT22;8517;53.546;10.104;2024-03-29T00:13:07;10.10;99.90
11221;DHT22;8517;53.546;10.104;2024-03-29T00:15:33;10.00;99.90
11221;DHT22;8517;53.546;10.104;2024-03-29T00:17:59;10.00;99.90
11221;DHT22;8517;53.546;10.104;2024-03-29T00:20:25;10.00;99.90
11221;DHT22;8517;53.546;10.104;2024-03-29T00:22:51;10.00;99.90
11221;DHT22;8517;53.546;10.104;2024-03-29T00:25:17;9.90;99.90
11221;DHT22;8517;53.546;10.104;2024-03-29T00:27:43;9.90;99.90
11221;DHT22;8517;53.546;10.104;2024-03-29T00:30:09;9.80;99.90
11221;DHT22;8517;53.546;10.104;2024-03-29T00:32:35;9.80;99.90
11221;DHT22;8517;53.546;10.104;2024-03-29T00:35:01;9.80;99.90
11221;DHT22;8517;53.546;10.104;2024-03-29T00:37:26;9.80;99.90
11221;DHT22;8517;53.546;10.104;2024-03-29T00:39:52;9.70;99.90
11221;DHT22;8517;53.546;10.104;2024-03-29T00:42:18;9.70;99.90
11221;DHT22;8517;53.546;10.104;2024-03-29T00:44:44;9.70;99.90
11221;DHT22;8517;53.546;10.104;2024-03-29T00:47:10;9.60;99.90
11221;DHT22;8517;53.546;10.104;2024-03-29T00:49:36;9.60;99.90
11221;DHT22;8517;53.546;10.104;2024-03-29T00:52:03;9.60;99.90
11221;DHT22;8517;53.546;10.104;2024-03-29T00:54:29;9.60;99.90
11221;DHT22;8517;53.546;10.104;2024-03-29T00:56:55;9.60;99.90
11221;DHT22;8517;53.546;10.104;2024-03-29T00:59:21;9.60;99.90
11221;DHT22;8517;53.546;10.104;2024-03-29T01:01:47;9.50;99.90
11221;DHT22;8517;53.546;10.104;2024-03-29T01:04:13;9.50;99.90
11221;DHT22;8517;53.546;10.104;2024-03-29T01:06:39;9.60;99.90
11221;DHT22;8517;53.546;10.104;2024-03-29T01:09:05;9.50;99.90
11221;DHT22;8517;53.546;10.104;2024-03-29T01:11:31;9.50;99.90
11221;DHT22;8517;53.546;10.104;2024-03-29T01:13:57;9.50;99.90
11221;DHT22;8517;53.546;10.104;2024-03-29T01:16:23;9.50;99.90
11221;DHT22;8517;53.546;10.104;2024-03-29T01:18:49;9.40;99.90
11221;DHT22;8517;53.546;10.104;2024-03-29T01:21:15;9.40;99.90
11221;DHT22;8517;53.546;10.104;2024-03-29T01:23:41;9.40;99.90
11221;DHT22;8517;53.546;10.104;2024-03-29T01:26:07;9.40;99.90
11221;DHT22;8517;53.546;10.104;2024-03-29T01:28:33;9.40;99.90
11221;DHT22;8517;53.546;10.104;2024-03-29T01:30:59;9.50;99.90
11221;DHT22;8517;53.546;10.104;2024-03-29T01:33:25;9.40;99.90
11221;DHT22;8517;53.546;10.104;2024-03-29T01:35:51;9.40;99.90
11221;DHT22;8517;53.546;10.104;2024-03-29T01:38:17;9.40;99.90
11221;DHT22;8517;53.546;10.104;2024-03-29T01:40:43;9.40;99.90
11221;DHT22;8517;53.546;10.104;2024-03-29T01:43:09;9.40;99.90
11221;DHT22;8517;53.546;10.104;2024-03-29T01:45:38;9.40;99.90
11221;DHT22;8517;53.546;10.104;2024-03-29T01:48:06;9.30;99.90
11221;DHT22;8517;53.546;10.104;2024-03-29T01:50:33;9.30;99.90
11221;DHT22;8517;53.546;10.104;2024-03-29T01:53:00;9.30;99.90
11221;DHT22;8517;53.546;10.104;2024-03-29T01:55:27;9.30;99.90
11221;DHT22;8517;53.546;10.104;2024-03-29T01:57:56;9.20;99.90
11221;DHT22;8517;53.546;10.104;2024-03-29T02:00:23;9.20;99.90
11221;DHT22;8517;53.546;10.104;2024-03-29T02:02:51;9.20;99.90
11221;DHT22;8517;53.546;10.104;2024-03-29T02:05:18;9.20;99.90
11221;DHT22;8517;53.546;10.104;2024-03-29T02:07:46;9.20;99.90
11221;DHT22;8517;53.546;10.104;2024-03-29T02:10:14;9.20;99.90
11221;DHT22;8517;53.546;10.104;2024-03-29T02:12:41;9.10;99.90
11221;DHT22;8517;53.546;10.104;2024-03-29T02:15:08;9.10;99.90
11221;DHT22;8517;53.546;10.104;2024-03-29T02:17:35;9.10;99.90
11221;DHT22;8517;53.546;10.104;2024-03-29T02:20:01;9.10;99.90
11221;DHT22;8517;53.546;10.104;2024-03-29T02:22:30;9.10;99.90
11221;DHT22;8517;53.546;10.104;2024-03-29T02:24:57;9.00;99.90
11221;DHT22;8517;53.546;10.104;2024-03-29T02:27:24;9.00;99.90
11221;DHT22;8517;53.546;10.104;2024-03-29T02:29:51;9.00;99.90
11221;DHT22;8517;53.546;10.104;2024-03-29T02:32:17;9.00;99.90
11221;DHT22;8517;53.546;10.104;2024-03-29T02:34:44;9.00;99.90
11221;DHT22;8517;53.546;10.104;2024-03-29T02:37:11;9.00;99.90
11221;DHT22;8517;53.546;10.104;2024-03-29T02:39:37;8.90;99.90
11221;DHT22;8517;53.546;10.104;2024-03-29T02:42:04;9.00;99.90
11221;DHT22;8517;53.546;10.104;2024-03-29T02:44:32;8.90;99.90
11221;DHT22;8517;53.546;10.104;2024-03-29T02:46:58;9.00;99.90
11221;DHT22;8517;53.546;10.104;2024-03-29T02:49:25;8.90;99.90
11221;DHT22;8517;53.546;10.104;2024-03-29T02:51:51;9.00;99.90
11221;DHT22;8517;53.546;10.104;2024-03-29T02:54:18;9.00;99.90
11221;DHT22;8517;53.546;10.104;2024-03-29T02:56:44;8.90;99.90
11221;DHT22;8517;53.546;10.104;2024-03-29T02:59:11;8.90;99.90
11221;DHT22;8517;53.546;10.104;2024-03-29T03:01:36;8.90;99.90
11221;DHT22;8517;53.546;10.104;2024-03-29T03:04:03;9.00;99.90
11221;DHT22;8517;53.546;10.104;2024-03-29T03:06:29;9.00;99.90
11221;DHT22;8517;53.546;10.104;2024-03-29T03:08:56;9.00;99.90
11221;DHT22;8517;53.546;10.104;2024-03-29T03:11:40;9.00;99.90
11221;DHT22;8517;53.546;10.104;2024-03-29T03:14:07;9.00;99.90
11221;DHT22;8517;53.546;10.104;2024-03-29T03:16:33;9.00;99.90
11221;DHT22;8517;53.546;10.104;2024-03-29T03:19:00;9.00;99.90
11221;DHT22;8517;53.546;10.104;2024-03-29T03:21:26;9.00;99.90
11221;DHT22;8517;53.546;10.104;2024-03-29T03:23:52;9.00;99.90
11221;DHT22;8517;53.546;10.104;2024-03-29T03:26:18;9.00;99.90
11221;DHT22;8517;53.546;10.104;2024-03-29T03:28:45;8.90;99.90
11221;DHT22;8517;53.546;10.104;2024-03-29T03:31:10;8.90;99.90
11221;DHT22;8517;53.546;10.104;2024-03-29T03:33:37;8.90;99.90
11221;DHT22;8517;53.546;10.104;2024-03-29T03:36:03;8.80;99.90
11221;DHT22;8517;53.546;10.104;2024-03-29T03:38:30;8.90;99.90
11221;DHT22;8517;53.546;10.104;2024-03-29T03:40:56;8.80;99.90
11221;DHT22;8517;53.546;10.104;2024-03-29T03:43:23;8.80;99.90
11221;DHT22;8517;53.546;10.104;2024-03-29T03:45:49;8.80;99.90
11221;DHT22;8517;53.546;10.104;2024-03-29T03:48:15;8.70;99.90
11221;DHT22;8517;53.546;10.104;2024-03-29T03:50:41;8.70;99.90
11221;DHT22;8517;53.546;10.104;2024-03-29T03:53:08;8.60;99.90
11221;DHT22;8517;53.546;10.104;2024-03-29T03:55:37;8.60;99.90
11221;DHT22;8517;53.546;10.104;2024-03-29T03:58:04;8.60;99.90
11221;DHT22;8517;53.546;10.104;2024-03-29T04:00:29;8.50;99.90
11221;DHT22;8517;53.546;10.104;2024-03-29T04:02:56;8.50;99.90
11221;DHT22;8517;53.546;10.104;2024-03-29T04:05:22;8.50;99.90
11221;DHT22;8517;53.546;10.104;2024-03-29T04:07:50;8.40;99.90
11221;DHT22;8517;53.546;10.104;2024-03-29T04:10:16;8.40;99.90
11221;DHT22;8517;53.546;10.104;2024-03-29T04:12:42;8.40;99.90
11221;DHT22;8517;53.546;10.104;2024-03-29T04:15:08;8.40;99.90
11221;DHT22;8517;53.546;10.104;2024-03-29T04:17:36;8.40;99.90
11221;DHT22;8517;53.546;10.104;2024-03-29T04:20:02;8.40;99.90
11221;DHT22;8517;53.546;10.104;2024-03-29T04:22:30;8.40;99.90
11221;DHT22;8517;53.546;10.104;2024-03-29T04:24:56;8.40;99.90
11221;DHT22;8517;53.546;10.104;2024-03-29T04:27:23;8.50;99.90
11221;DHT22;8517;53.546;10.104;2024-03-29T04:29:54;8.40;99.90
11221;DHT22;8517;53.546;10.104;2024-03-29T04:32:21;8.50;99.90
11221;DHT22;8517;53.546;10.104;2024-03-29T04:34:48;8.50;99.90
11221;DHT22;8517;53.546;10.104;2024-03-29T04:37:15;8.50;99.90
11221;DHT22;8517;53.546;10.104;2024-03-29T04:39:45;8.50;99.90
11221;DHT22;8517;53.546;10.104;2024-03-29T04:42:12;8.50;99.90
11221;DHT22;8517;53.546;10.104;2024-03-29T04:44:40;8.50;99.90
11221;DHT22;8517;53.546;10.104;2024-03-29T04:47:07;8.50;99.90
11221;DHT22;8517;53.546;10.104;2024-03-29T04:49:34;8.50;99.90
11221;DHT22;8517;53.546;10.104;2024-03-29T04:52:03;8.50;99.90
11221;DHT22;8517;53.546;10.104;2024-03-29T04:54:31;8.50;99.90
11221;DHT22;8517;53.546;10.104;2024-03-29T04:57:01;8.50;99.90
11221;DHT22;8517;53.546;10.104;2024-03-29T04:59:29;8.60;99.90
11221;DHT22;8517;53.546;10.104;2024-03-29T05:01:56;8.60;99.90
11221;DHT22;8517;53.546;10.104;2024-03-29T05:04:23;8.60;99.90
11221;DHT22;8517;53.546;10.104;2024-03-29T05:06:52;8.60;99.90
11221;DHT22;8517;53.546;10.104;2024-03-29T05:09:19;8.60;99.90
11221;DHT22;8517;53.546;10.104;2024-03-29T05:11:45;8.60;99.90
11221;DHT22;8517;53.546;10.104;2024-03-29T05:14:17;8.70;99.90
11221;DHT22;8517;53.546;10.104;2024-03-29T05:16:45;8.70;99.90
11221;DHT22;8517;53.546;10.104;2024-03-29T05:19:13;8.70;99.90
11221;DHT22;8517;53.546;10.104;2024-03-29T05:21:43;8.70;99.90
11221;DHT22;8517;53.546;10.104;2024-03-29T05:24:10;8.80;99.90
11221;DHT22;8517;53.546;10.104;2024-03-29T05:26:36;8.70;99.90
11221;DHT22;8517;53.546;10.104;2024-03-29T05:29:03;8.80;99.90
11221;DHT22;8517;53.546;10.104;2024-03-29T05:31:30;8.80;99.90
11221;DHT22;8517;53.546;10.104;2024-03-29T05:33:57;8.90;99.90
11221;DHT22;8517;53.546;10.104;2024-03-29T05:36:25;8.90;99.90
11221;DHT22;8517;53.546;10.104;2024-03-29T05:38:52;8.90;99.90
11221;DHT22;8517;53.546;10.104;2024-03-29T05:41:19;8.90;99.90
11221;DHT22;8517;53.546;10.104;2024-03-29T05:43:46;8.90;99.90
11221;DHT22;8517;53.546;10.104;2024-03-29T05:46:15;9.00;99.90
11221;DHT22;8517;53.546;10.104;2024-03-29T05:48:42;9.00;99.90
11221;DHT22;8517;53.546;10.104;2024-03-29T05:51:09;9.10;99.90
11221;DHT22;8517;53.546;10.104;2024-03-29T05:53:36;9.00;99.90
11221;DHT22;8517;53.546;10.104;2024-03-29T05:56:03;9.10;99.90
11221;DHT22;8517;53.546;10.104;2024-03-29T05:58:29;9.10;99.90
11221;DHT22;8517;53.546;10.104;2024-03-29T06:00:56;9.20;99.90
11221;DHT22;8517;53.546;10.104;2024-03-29T06:03:23;9.20;99.90
11221;DHT22;8517;53.546;10.104;2024-03-29T06:05:49;9.20;99.90
11221;DHT22;8517;53.546;10.104;2024-03-29T06:08:16;9.30;99.90
11221;DHT22;8517;53.546;10.104;2024-03-29T06:10:43;9.30;99.90
11221;DHT22;8517;53.546;10.104;2024-03-29T06:13:10;9.30;99.90
11221;DHT22;8517;53.546;10.104;2024-03-29T06:15:53;9.30;99.90
11221;DHT22;8517;53.546;10.104;2024-03-29T06:18:37;9.40;99.90
11221;DHT22;8517;53.546;10.104;2024-03-29T06:21:04;9.40;99.90
11221;DHT22;8517;53.546;10.104;2024-03-29T06:23:31;9.40;99.90
11221;DHT22;8517;53.546;10.104;2024-03-29T06:25:57;9.40;99.90
11221;DHT22;8517;53.546;10.104;2024-03-29T06:28:24;9.50;99.90
11221;DHT22;8517;53.546;10.104;2024-03-29T06:30:51;9.50;99.90
11221;DHT22;8517;53.546;10.104;2024-03-29T06:33:17;9.60;99.90
11221;DHT22;8517;53.546;10.104;2024-03-29T06:35:53;9.60;99.90
11221;DHT22;8517;53.546;10.104;2024-03-29T06:38:19;9.60;99.90
11221;DHT22;8517;53.546;10.104;2024-03-29T06:40:46;9.70;99.90
11221;DHT22;8517;53.546;10.104;2024-03-29T06:43:13;9.60;99.90
11221;DHT22;8517;53.546;10.104;2024-03-29T06:45:40;9.70;99.90
11221;DHT22;8517;53.546;10.104;2024-03-29T06:48:08;9.70;99.90
11221;DHT22;8517;53.546;10.104;2024-03-29T06:50:35;9.80;99.90
11221;DHT22;8517;53.546;10.104;2024-03-29T06:53:02;9.80;99.90
11221;DHT22;8517;53.546;10.104;2024-03-29T06:55:30;9.80;99.90
11221;DHT22;8517;53.546;10.104;2024-03-29T06:57:57;9.80;99.90
11221;DHT22;8517;53.546;10.104;2024-03-29T07:00:24;9.80;99.90
11221;DHT22;8517;53.546;10.104;2024-03-29T07:02:50;9.90;99.90
11221;DHT22;8517;53.546;10.104;2024-03-29T07:05:17;9.90;99.90
11221;DHT22;8517;53.546;10.104;2024-03-29T07:07:43;10.00;99.90
11221;DHT22;8517;53.546;10.104;2024-03-29T07:10:12;10.00;99.90
11221;DHT22;8517;53.546;10.104;2024-03-29T07:12:39;10.10;99.90
11221;DHT22;8517;53.546;10.104;2024-03-29T07:15:06;10.10;99.90
11221;DHT22;8517;53.546;10.104;2024-03-29T07:17:33;10.10;99.90
11221;DHT22;8517;53.546;10.104;2024-03-29T07:20:00;10.10;99.90
11221;DHT22;8517;53.546;10.104;2024-03-29T07:22:26;10.20;99.90
11221;DHT22;8517;53.546;10.104;2024-03-29T07:24:54;10.30;99.90
11221;DHT22;8517;53.546;10.104;2024-03-29T07:27:21;10.30;99.90
11221;DHT22;8517;53.546;10.104;2024-03-29T07:29:48;10.40;99.90
11221;DHT22;8517;53.546;10.104;2024-03-29T07:32:15;10.50;99.90
11221;DHT22;8517;53.546;10.104;2024-03-29T07:34:42;10.50;99.90
11221;DHT22;8517;53.546;10.104;2024-03-29T07:37:08;10.60;99.90
11221;DHT22;8517;53.546;10.104;2024-03-29T07:39:41;10.70;99.90
11221;DHT22;8517;53.546;10.104;2024-03-29T07:42:08;10.70;99.90
11221;DHT22;8517;53.546;10.104;2024-03-29T07:44:34;10.80;99.90
11221;DHT22;8517;53.546;10.104;2024-03-29T07:47:01;10.80;99.90
11221;DHT22;8517;53.546;10.104;2024-03-29T07:49:29;10.90;99.90
11221;DHT22;8517;53.546;10.104;2024-03-29T07:51:55;11.00;99.90
11221;DHT22;8517;53.546;10.104;2024-03-29T07:54:22;11.10;99.90
11221;DHT22;8517;53.546;10.104;2024-03-29T07:56:49;11.10;99.90
11221;DHT22;8517;53.546;10.104;2024-03-29T07:59:16;11.10;99.90
11221;DHT22;8517;53.546;10.104;2024-03-29T08:01:44;11.20;99.90
11221;DHT22;8517;53.546;10.104;2024-03-29T08:04:11;11.30;99.90
11221;DHT22;8517;53.546;10.104;2024-03-29T08:06:39;11.30;99.90
11221;DHT22;8517;53.546;10.104;2024-03-29T08:09:06;11.40;99.90
11221;DHT22;8517;53.546;10.104;2024-03-29T08:11:32;11.40;99.90
11221;DHT22;8517;53.546;10.104;2024-03-29T08:13:59;11.40;99.90
11221;DHT22;8517;53.546;10.104;2024-03-29T08:16:26;11.50;99.90
11221;DHT22;8517;53.546;10.104;2024-03-29T08:18:53;11.60;99.90
11221;DHT22;8517;53.546;10.104;2024-03-29T08:21:20;11.60;99.90
11221;DHT22;8517;53.546;10.104;2024-03-29T08:23:46;11.60;99.90
11221;DHT22;8517;53.546;10.104;2024-03-29T08:26:13;11.70;99.90
11221;DHT22;8517;53.546;10.104;2024-03-29T08:28:40;11.70;99.90
11221;DHT22;8517;53.546;10.104;2024-03-29T08:31:07;11.70;99.90
11221;DHT22;8517;53.546;10.104;2024-03-29T08:33:35;11.70;99.90
11221;DHT22;8517;53.546;10.104;2024-03-29T08:36:07;11.80;99.90
11221;DHT22;8517;53.546;10.104;2024-03-29T08:38:35;11.80;99.90
11221;DHT22;8517;53.546;10.104;2024-03-29T08:41:01;11.80;99.90
11221;DHT22;8517;53.546;10.104;2024-03-29T08:43:28;11.80;99.90
11221;DHT22;8517;53.546;10.104;2024-03-29T08:45:55;11.80;99.90
11221;DHT22;8517;53.546;10.104;2024-03-29T08:48:23;11.80;99.90
11221;DHT22;8517;53.546;10.104;2024-03-29T08:50:50;11.80;99.90
11221;DHT22;8517;53.546;10.104;2024-03-29T08:53:17;11.80;99.90
11221;DHT22;8517;53.546;10.104;2024-03-29T08:55:46;11.70;99.90
11221;DHT22;8517;53.546;10.104;2024-03-29T08:58:14;11.70;99.90
11221;DHT22;8517;53.546;10.104;2024-03-29T09:00:40;11.70;99.90
11221;DHT22;8517;53.546;10.104;2024-03-29T09:03:07;11.70;99.90
11221;DHT22;8517;53.546;10.104;2024-03-29T09:05:34;11.70;99.90
11221;DHT22;8517;53.546;10.104;2024-03-29T09:08:00;11.70;99.90
11221;DHT22;8517;53.546;10.104;2024-03-29T09:10:27;11.70;99.90
11221;DHT22;8517;53.546;10.104;2024-03-29T09:12:54;11.70;99.90
11221;DHT22;8517;53.546;10.104;2024-03-29T09:15:20;11.80;99.90
11221;DHT22;8517;53.546;10.104;2024-03-29T09:17:47;11.80;99.90
11221;DHT22;8517;53.546;10.104;2024-03-29T09:20:14;11.90;99.90
11221;DHT22;8517;53.546;10.104;2024-03-29T09:22:40;11.90;99.90
11221;DHT22;8517;53.546;10.104;2024-03-29T09:25:07;11.90;99.90
11221;DHT22;8517;53.546;10.104;2024-03-29T09:27:39;12.00;99.90
11221;DHT22;8517;53.546;10.104;2024-03-29T09:30:11;12.00;99.90
11221;DHT22;8517;53.546;10.104;2024-03-29T09:32:38;12.00;99.90
11221;DHT22;8517;53.546;10.104;2024-03-29T09:35:05;12.00;99.90
11221;DHT22;8517;53.546;10.104;2024-03-29T09:37:32;12.10;99.90
11221;DHT22;8517;53.546;10.104;2024-03-29T09:40:04;12.00;99.90
11221;DHT22;8517;53.546;10.104;2024-03-29T09:42:32;12.00;99.90
11221;DHT22;8517;53.546;10.104;2024-03-29T09:45:02;12.00;99.90
11221;DHT22;8517;53.546;10.104;2024-03-29T09:47:30;12.00;99.90
11221;DHT22;8517;53.546;10.104;2024-03-29T09:50:00;12.00;99.90
11221;DHT22;8517;53.546;10.104;2024-03-29T09:52:28;12.00;99.90
11221;DHT22;8517;53.546;10.104;2024-03-29T09:54:55;12.00;99.90
11221;DHT22;8517;53.546;10.104;2024-03-29T09:57:23;12.00;99.90
11221;DHT22;8517;53.546;10.104;2024-03-29T09:59:55;12.00;99.90
11221;DHT22;8517;53.546;10.104;2024-03-29T10:02:22;12.00;99.90
11221;DHT22;8517;53.546;10.104;2024-03-29T10:04:53;12.00;99.90
11221;DHT22;8517;53.546;10.104;2024-03-29T10:07:23;12.00;99.90
11221;DHT22;8517;53.546;10.104;2024-03-29T10:09:50;12.00;99.90
11221;DHT22;8517;53.546;10.104;2024-03-29T10:12:18;12.00;99.90
11221;DHT22;8517;53.546;10.104;2024-03-29T10:14:45;12.10;99.90
11221;DHT22;8517;53.546;10.104;2024-03-29T10:17:18;12.00;99.90
11221;DHT22;8517;53.546;10.104;2024-03-29T10:19:45;12.00;99.90
11221;DHT22;8517;53.546;10.104;2024-03-29T10:22:13;12.10;99.90
11221;DHT22;8517;53.546;10.104;2024-03-29T10:24:40;12.00;99.90
11221;DHT22;8517;53.546;10.104;2024-03-29T10:27:07;12.10;99.90
11221;DHT22;8517;53.546;10.104;2024-03-29T10:29:34;12.10;99.90
11221;DHT22;8517;53.546;10.104;2024-03-29T10:32:01;12.10;99.90
11221;DHT22;8517;53.546;10.104;2024-03-29T10:34:29;12.10;99.90
11221;DHT22;8517;53.546;10.104;2024-03-29T10:37:00;12.10;99.90
11221;DHT22;8517;53.546;10.104;2024-03-29T10:39:29;12.10;99.90
11221;DHT22;8517;53.546;10.104;2024-03-29T10:41:57;12.20;99.90
11221;DHT22;8517;53.546;10.104;2024-03-29T10:44:25;12.10;99.90
11221;DHT22;8517;53.546;10.104;2024-03-29T10:46:53;12.10;99.90
11221;DHT22;8517;53.546;10.104;2024-03-29T10:49:22;12.20;99.90
11221;DHT22;8517;53.546;10.104;2024-03-29T10:51:50;12.20;99.90
11221;DHT22;8517;53.546;10.104;2024-03-29T10:54:17;12.20;99.90
11221;DHT22;8517;53.546;10.104;2024-03-29T10:56:47;12.20;99.90
11221;DHT22;8517;53.546;10.104;2024-03-29T10:59:26;12.20;99.90
11221;DHT22;8517;53.546;10.104;2024-03-29T11:01:59;12.20;99.90
11221;DHT22;8517;53.546;10.104;2024-03-29T11:04:32;12.30;99.90
11221;DHT22;8517;53.546;10.104;2024-03-29T11:07:06;12.30;99.90
11221;DHT22;8517;53.546;10.104;2024-03-29T11:09:33;12.30;99.90
11221;DHT22;8517;53.546;10.104;2024-03-29T11:12:01;12.40;99.90
11221;DHT22;8517;53.546;10.104;2024-03-29T11:14:53;12.30;99.90
11221;DHT22;8517;53.546;10.104;2024-03-29T11:17:24;12.40;99.90
11221;DHT22;8517;53.546;10.104;2024-03-29T11:19:51;12.40;99.90
11221;DHT22;8517;53.546;10.104;2024-03-29T11:22:18;12.40;99.90
11221;DHT22;8517;53.546;10.104;2024-03-29T11:24:44;12.40;99.90
11221;DHT22;8517;53.546;10.104;2024-03-29T11:27:11;12.50;99.90
11221;DHT22;8517;53.546;10.104;2024-03-29T11:29:41;12.50;99.90
11221;DHT22;8517;53.546;10.104;2024-03-29T11:32:11;12.50;99.90
11221;DHT22;8517;53.546;10.104;2024-03-29T11:34:44;12.50;99.90
11221;DHT22;8517;53.546;10.104;2024-03-29T11:37:12;12.60;99.90
11221;DHT22;8517;53.546;10.104;2024-03-29T11:39:39;12.60;99.90
11221;DHT22;8517;53.546;10.104;2024-03-29T11:42:07;12.60;99.90
11221;DHT22;8517;53.546;10.104;2024-03-29T11:44:33;12.80;99.90
11221;DHT22;8517;53.546;10.104;2024-03-29T11:47:03;12.80;99.90
11221;DHT22;8517;53.546;10.104;2024-03-29T11:49:32;12.90;99.90
11221;DHT22;8517;53.546;10.104;2024-03-29T11:52:04;13.00;99.90
11221;DHT22;8517;53.546;10.104;2024-03-29T11:54:40;13.10;99.90
11221;DHT22;8517;53.546;10.104;2024-03-29T11:57:07;13.20;99.90
11221;DHT22;8517;53.546;10.104;2024-03-29T11:59:33;13.30;99.90
11221;DHT22;8517;53.546;10.104;2024-03-29T12:02:00;13.40;99.90
11221;DHT22;8517;53.546;10.104;2024-03-29T12:04:28;13.40;99.90
11221;DHT22;8517;53.546;10.104;2024-03-29T12:06:55;13.50;99.90
11221;DHT22;8517;53.546;10.104;2024-03-29T12:09:22;13.60;99.90
11221;DHT22;8517;53.546;10.104;2024-03-29T12:11:48;13.70;99.90
11221;DHT22;8517;53.546;10.104;2024-03-29T12:14:16;13.70;99.90
11221;DHT22;8517;53.546;10.104;2024-03-29T12:16:45;13.80;99.90
11221;DHT22;8517;53.546;10.104;2024-03-29T12:19:24;13.90;99.90
11221;DHT22;8517;53.546;10.104;2024-03-29T12:21:53;13.90;99.90
11221;DHT22;8517;53.546;10.104;2024-03-29T12:24:20;13.90;99.90
11221;DHT22;8517;53.546;10.104;2024-03-29T12:26:48;14.00;99.90
11221;DHT22;8517;53.546;10.104;2024-03-29T12:29:16;14.00;99.90
11221;DHT22;8517;53.546;10.104;2024-03-29T12:31:42;14.10;99.90
11221;DHT22;8517;53.546;10.104;2024-03-29T12:34:09;14.20;99.90
11221;DHT22;8517;53.546;10.104;2024-03-29T12:36:36;14.30;99.90
11221;DHT22;8517;53.546;10.104;2024-03-29T12:39:02;14.40;99.90
11221;DHT22;8517;53.546;10.104;2024-03-29T12:41:31;14.50;99.90
11221;DHT22;8517;53.546;10.104;2024-03-29T12:44:00;14.60;99.90
11221;DHT22;8517;53.546;10.104;2024-03-29T12:46:27;14.60;99.90
11221;DHT22;8517;53.546;10.104;2024-03-29T12:49:00;14.70;99.90
11221;DHT22;8517;53.546;10.104;2024-03-29T12:51:27;14.70;99.90
11221;DHT22;8517;53.546;10.104;2024-03-29T12:53:55;14.80;99.90
11221;DHT22;8517;53.546;10.104;2024-03-29T12:56:26;14.80;99.90
11221;DHT22;8517;53.546;10.104;2024-03-29T12:58:53;14.90;99.90
11221;DHT22;8517;53.546;10.104;2024-03-29T13:01:20;14.90;99.90
11221;DHT22;8517;53.546;10.104;2024-03-29T13:03:46;15.00;99.90
11221;DHT22;8517;53.546;10.104;2024-03-29T13:06:13;15.00;99.90
11221;DHT22;8517;53.546;10.104;2024-03-29T13:08:40;15.00;99.90
11221;DHT22;8517;53.546;10.104;2024-03-29T13:11:07;15.00;99.90
11221;DHT22;8517;53.546;10.104;2024-03-29T13:13:35;15.00;99.90
11221;DHT22;8517;53.546;10.104;2024-03-29T13:16:02;15.00;99.90
11221;DHT22;8517;53.546;10.104;2024-03-29T13:18:29;15.00;99.90
11221;DHT22;8517;53.546;10.104;2024-03-29T13:20:55;15.10;99.90
11221;DHT22;8517;53.546;10.104;2024-03-29T13:23:31;15.10;99.90
11221;DHT22;8517;53.546;10.104;2024-03-29T13:25:58;15.20;99.90
11221;DHT22;8517;53.546;10.104;2024-03-29T13:28:25;15.20;99.90
11221;DHT22;8517;53.546;10.104;2024-03-29T13:31:00;15.20;99.90
11221;DHT22;8517;53.546;10.104;2024-03-29T13:34:06;15.20;99.90
11221;DHT22;8517;53.546;10.104;2024-03-29T13:36:39;15.30;99.90
11221;DHT22;8517;53.546;10.104;2024-03-29T13:39:07;15.40;99.90
11221;DHT22;8517;53.546;10.104;2024-03-29T13:41:36;15.30;99.90
11221;DHT22;8517;53.546;10.104;2024-03-29T13:44:27;15.30;99.90
11221;DHT22;8517;53.546;10.104;2024-03-29T13:46:53;15.30;99.90
11221;DHT22;8517;53.546;10.104;2024-03-29T13:49:20;15.20;99.90
11221;DHT22;8517;53.546;10.104;2024-03-29T13:51:47;15.20;99.90
11221;DHT22;8517;53.546;10.104;2024-03-29T13:54:15;15.10;99.90
11221;DHT22;8517;53.546;10.104;2024-03-29T13:56:48;15.20;99.90
11221;DHT22;8517;53.546;10.104;2024-03-29T13:59:19;15.20;99.90
11221;DHT22;8517;53.546;10.104;2024-03-29T14:01:46;15.20;99.90
11221;DHT22;8517;53.546;10.104;2024-03-29T14:04:13;15.30;99.90
11221;DHT22;8517;53.546;10.104;2024-03-29T14:06:39;15.40;99.90
11221;DHT22;8517;53.546;10.104;2024-03-29T14:09:06;15.50;99.90
11221;DHT22;8517;53.546;10.104;2024-03-29T14:11:33;15.60;99.90
11221;DHT22;8517;53.546;10.104;2024-03-29T14:14:00;15.60;99.90
11221;DHT22;8517;53.546;10.104;2024-03-29T14:16:27;15.70;99.90
11221;DHT22;8517;53.546;10.104;2024-03-29T14:18:53;15.70;99.90
11221;DHT22;8517;53.546;10.104;2024-03-29T14:21:20;15.60;99.90
11221;DHT22;8517;53.546;10.104;2024-03-29T14:23:47;15.70;99.90
11221;DHT22;8517;53.546;10.104;2024-03-29T14:26:14;15.60;99.90
11221;DHT22;8517;53.546;10.104;2024-03-29T14:28:41;15.60;99.90
11221;DHT22;8517;53.546;10.104;2024-03-29T14:31:07;15.60;99.90
11221;DHT22;8517;53.546;10.104;2024-03-29T14:33:35;15.70;99.90
11221;DHT22;8517;53.546;10.104;2024-03-29T14:36:19;15.70;99.90
11221;DHT22;8517;53.546;10.104;2024-03-29T14:38:58;15.70;99.90
11221;DHT22;8517;53.546;10.104;2024-03-29T14:41:26;15.70;99.90
11221;DHT22;8517;53.546;10.104;2024-03-29T14:44:02;15.70;99.90
11221;DHT22;8517;53.546;10.104;2024-03-29T14:46:29;15.70;99.90
11221;DHT22;8517;53.546;10.104;2024-03-29T14:48:56;15.70;99.90
11221;DHT22;8517;53.546;10.104;2024-03-29T14:51:23;15.70;99.90
11221;DHT22;8517;53.546;10.104;2024-03-29T14:53:50;15.60;99.90
11221;DHT22;8517;53.546;10.104;2024-03-29T14:56:29;15.60;99.90
11221;DHT22;8517;53.546;10.104;2024-03-29T14:59:08;15.60;99.90
11221;DHT22;8517;53.546;10.104;2024-03-29T15:01:36;15.60;99.90
11221;DHT22;8517;53.546;10.104;2024-03-29T15:04:04;15.60;99.90
11221;DHT22;8517;53.546;10.104;2024-03-29T15:06:31;15.60;99.90
11221;DHT22;8517;53.546;10.104;2024-03-29T15:08:58;15.70;99.90
11221;DHT22;8517;53.546;10.104;2024-03-29T15:11:25;15.80;99.90
11221;DHT22;8517;53.546;10.104;2024-03-29T15:13:52;15.80;99.90
11221;DHT22;8517;53.546;10.104;2024-03-29T15:16:19;15.80;99.90
11221;DHT22;8517;53.546;10.104;2024-03-29T15:18:47;15.80;99.90
11221;DHT22;8517;53.546;10.104;2024-03-29T15:21:14;15.80;99.90
11221;DHT22;8517;53.546;10.104;2024-03-29T15:23:40;15.80;99.90
11221;DHT22;8517;53.546;10.104;2024-03-29T15:26:07;15.80;99.90
11221;DHT22;8517;53.546;10.104;2024-03-29T15:28:34;15.90;99.90
11221;DHT22;8517;53.546;10.104;2024-03-29T15:31:20;15.80;99.90
11221;DHT22;8517;53.546;10.104;2024-03-29T15:33:53;15.90;99.90
11221;DHT22;8517;53.546;10.104;2024-03-29T15:36:36;15.90;99.90
11221;DHT22;8517;53.546;10.104;2024-03-29T15:39:03;16.00;99.90
11221;DHT22;8517;53.546;10.104;2024-03-29T15:41:38;16.00;99.90